New Lebanon, Indiana
Current Conditions -  °F | °C
As of 3:35 AM on Friday 21 Nov 2014 (Local Time) from KRSV Reporting Station
Clear Clear  
Wind Chill: 11°   Ceiling: Unl
Heat Index: 19°   Visibility: 10mi
Dew Point: 12°   Wind: 6mph
Humidity: 75%   Direction: 10°N
Pressure: 30.43"   Gusts: NA
Location:  39.04°N, 87.47°W
Report Text: KRSV 210835Z AUTO 01005KT 10SM CLR M07/M11 A3043 RMK AO2 T10721109
Loading
Personal Weather Stations






























Interactive Weather Map New forecast layout! Learn more

10-Day Weather Forecast

Advertisements
Track Severe Weather on mobile